EW4719 Weather Reports


Display with metric or nautical units.
time (UTC)temp
F
wind
direction
speed
MPH
gust
MPH
rain 1hr
in
rain 24hr
in
rain mn
in
humidity
%
barometer
mb
20190122035431 34 252 11.0 17.0 0.00 0.59 0.00 93 996.0
20190122034429 34 272 10.0 20.0 0.00 0.59 0.00 93 996.2
20190122033432 34 288 10.0 16.0 0.00 0.59 0.00 93 996.3
20190122032431 34 261 12.0 21.0 0.00 0.59 0.00 93 996.3
20190122031434 34 264 8.0 17.0 0.00 0.59 0.00 93 996.4
20190122030435 34 259 10.0 19.0 0.00 0.59 0.00 93 996.5
20190122025429 34 288 10.0 18.0 0.00 0.59 0.00 93 996.6
20190122024430 35 259 11.0 18.0 0.00 0.59 0.00 93 996.7
20190122023430 35 269 11.0 16.0 0.00 0.59 0.00 93 996.8
20190122022428 35 275 10.0 17.0 0.00 0.59 0.00 93 996.8
20190122021434 35 292 10.0 20.0 0.00 0.59 0.00 93 996.8
20190122020432 35 284 9.0 15.0 0.00 0.59 0.00 93 996.9
20190122015427 35 265 10.0 16.0 0.00 0.59 0.00 92 996.9
20190122014429 35 272 10.0 18.0 0.00 0.59 0.00 92 997.1
20190122013425 35 245 12.0 17.0 0.00 0.59 0.00 92 997.4
20190122012431 35 309 9.0 15.0 0.00 0.59 0.00 92 997.6
20190122011429 35 272 9.0 14.0 0.00 0.59 0.00 92 997.7
20190122010431 35 263 11.0 19.0 0.00 0.59 0.00 92 997.7
20190122005429 35 276 8.0 15.0 0.00 0.59 0.00 92 997.6
20190122004427 35 258 9.0 16.0 0.00 0.59 0.00 91 997.7
20190122003432 36 263 10.0 16.0 0.00 0.59 0.00 91 997.7
20190122002434 36 267 8.0 14.0 0.00 0.59 0.00 91 997.7
20190122001436 36 275 8.0 14.0 0.00 0.59 0.00 91 997.7
20190122000420 36 288 9.0 15.0 0.00 0.59 0.00 91 997.7
20190121235422 36 288 9.0 14.0 0.00 0.59 0.12 91 997.7
20190121234420 36 271 9.0 14.0 0.00 0.59 0.12 90 997.6
20190121233427 36 294 8.0 12.0 0.00 0.59 0.12 91 997.5
20190121232425 36 309 8.0 14.0 0.00 0.59 0.12 91 997.6
20190121231431 36 292 10.0 16.0 0.00 0.59 0.12 92 997.8
20190121230435 36 285 11.0 17.0 0.00 0.59 0.12 92 997.7
20190121225431 36 291 11.0 18.0 0.00 0.59 0.12 93 997.8
20190121224436 36 273 12.0 21.0 0.04 0.59 0.12 93 997.9
20190121223435 36 298 10.0 17.0 0.04 0.59 0.12 93 998.0
20190121222439 36 302 12.0 18.0 0.08 0.59 0.12 93 998.0
20190121221425 37 286 13.0 25.0 0.16 0.59 0.12 93 998.0
20190121220424 37 242 16.0 28.0 0.24 0.59 0.12 93 998.1
20190121215422 37 225 17.0 25.0 0.28 0.59 0.12 94 998.1
20190121214422 37 235 11.0 19.0 0.28 0.55 0.11 94 998.2
20190121213427 37 220 10.0 19.0 0.28 0.55 0.11 94 998.3
20190121212430 37 194 12.0 22.0 0.28 0.51 0.10 93 998.5
20190121211430 38 179 12.0 28.0 0.24 0.43 0.09 93 998.6
20190121210433 38 213 16.0 29.0 0.24 0.35 0.07 93 998.6
20190121205432 38 227 18.0 25.0 0.24 0.31 0.06 92 998.8
20190121204431 38 215 19.0 29.0 0.20 0.28 0.06 92 998.9
20190121203436 38 201 17.0 25.0 0.24 0.28 0.06 92 999.2
20190121202437 39 211 15.0 24.0 0.20 0.24 0.05 91 999.5
20190121201420 39 216 17.0 30.0 0.20 0.20 0.04 91 999.8
20190121200439 39 232 16.0 26.0 0.12 0.12 0.02 90 999.9
20190121195435 39 223 17.0 32.0 0.08 0.08 0.02 90 1000.1
20190121194436 40 232 15.0 26.0 0.04 0.04 0.01 89 1000.1
20190121193435 40 212 15.0 33.0 0.04 0.04 0.01 88 1000.4
20190121192438 40 215 16.0 36.0 0.04 0.04 0.01 88 1000.6
20190121191420 40 228 17.0 37.0 0.00 0.00 0.00 87 1001.0
20190121190419 40 245 21.0 33.0 0.00 0.00 0.00 86 1001.0
20190121185437 40 234 16.0 25.0 0.00 0.00 0.00 85 1001.3
20190121184436 40 210 13.0 29.0 0.00 0.00 0.00 85 1001.5
20190121183433 40 161 17.0 30.0 0.00 0.00 0.00 85 1001.9
20190121182435 40 218 17.0 35.0 0.00 0.00 0.00 83 1002.1
20190121181431 40 198 17.0 28.0 0.00 0.00 0.00 82 1002.4
20190121180430 40 261 16.0 31.0 0.00 0.00 0.00 82 1002.7
20190121175422 40 181 19.0 38.0 0.00 0.00 0.00 81 1003.0
20190121174420 40 252 18.0 30.0 0.00 0.00 0.00 81 1003.4
20190121173423 39 215 22.0 33.0 0.00 0.00 0.00 81 1003.7
20190121172440 39 209 20.0 34.0 0.00 0.00 0.00 81 1003.8
20190121171439 39 208 19.0 30.0 0.00 0.00 0.00 81 1004.3
20190121170439 39 187 22.0 30.0 0.00 0.00 0.00 81 1004.6
20190121165435 39 210 18.0 37.0 0.00 0.00 0.00 82 1004.6
20190121164435 39 211 18.0 36.0 0.00 0.00 0.00 82 1005.0
20190121163433 39 182 19.0 32.0 0.00 0.00 0.00 82 1005.7
20190121162437 39 209 16.0 35.0 0.00 0.00 0.00 82 1005.9
20190121161421 39 182 15.0 27.0 0.00 0.00 0.00 83 1006.0
20190121160421 38 206 14.0 29.0 0.00 0.00 0.00 83 1006.5
20190121155422 38 213 13.0 23.0 0.00 0.00 0.00 83 1007.2
20190121154425 38 264 11.0 32.0 0.00 0.00 0.00 84 1007.6
20190121153426 38 207 16.0 24.0 0.00 0.00 0.00 85 1007.7
20190121152429 38 173 17.0 33.0 0.00 0.00 0.00 85 1007.9
20190121151428 38 217 15.0 23.0 0.00 0.00 0.00 84 1008.1
20190121150431 38 189 11.0 27.0 0.00 0.00 0.00 84 1008.6
20190121145429 38 199 14.0 29.0 0.00 0.00 0.00 86 1008.6
20190121144429 38 193 14.0 29.0 0.00 0.00 0.00 85 1009.1
20190121143432 38 180 10.0 23.0 0.00 0.00 0.00 85 1009.5
20190121142432 38 229 12.0 21.0 0.00 0.00 0.00 84 1010.0
20190121141433 38 217 11.0 22.0 0.00 0.00 0.00 85 1010.1
20190121140436 38 230 12.0 22.0 0.00 0.00 0.00 85 1010.5
20190121135429 38 242 12.0 24.0 0.00 0.00 0.00 85 1010.7
20190121134430 38 211 11.0 19.0 0.00 0.00 0.00 85 1010.9
20190121133433 38 196 10.0 21.0 0.00 0.00 0.00 85 1011.6
20190121132433 38 241 12.0 19.0 0.00 0.00 0.00 85 1011.9
20190121131432 38 224 13.0 24.0 0.00 0.00 0.00 86 1012.3
20190121130432 38 244 11.0 21.0 0.00 0.00 0.00 86 1012.5
20190121125428 38 219 12.0 20.0 0.00 0.00 0.00 86 1012.8
20190121124431 38 220 12.0 23.0 0.00 0.00 0.00 86 1013.1
20190121123430 38 195 15.0 26.0 0.00 0.00 0.00 87 1013.3
20190121122433 37 209 9.0 25.0 0.00 0.00 0.00 88 1013.6
20190121121433 37 286 12.0 20.0 0.00 0.00 0.00 88 1013.9
20190121120433 37 221 12.0 28.0 0.00 0.00 0.00 87 1013.9
20190121115430 37 226 10.0 20.0 0.00 0.00 0.00 87 1014.1
20190121114429 37 228 10.0 19.0 0.00 0.00 0.00 87 1014.4
20190121113428 37 244 15.0 21.0 0.00 0.00 0.00 85 1014.7
20190121112430 37 176 10.0 21.0 0.00 0.00 0.00 84 1015.3
20190121111428 37 236 12.0 22.0 0.00 0.00 0.00 83 1015.7
20190121110432 38 216 10.0 20.0 0.00 0.00 0.00 83 1016.0
20190121105425 38 198 13.0 23.0 0.00 0.00 0.00 84 1016.1
20190121104428 38 223 13.0 23.0 0.00 0.00 0.00 84 1016.3
20190121103430 38 192 15.0 22.0 0.00 0.00 0.00 83 1016.5
20190121102429 37 250 10.0 22.0 0.00 0.00 0.00 84 1016.6
20190121101432 37 229 14.0 20.0 0.00 0.00 0.00 83 1016.7
20190121100428 37 215 10.0 16.0 0.00 0.00 0.00 83 1016.9
20190121095423 37 254 11.0 17.0 0.00 0.00 0.00 82 1017.1
20190121094425 37 222 11.0 17.0 0.00 0.00 0.00 81 1017.3
20190121093425 37 213 12.0 20.0 0.00 0.00 0.00 80 1017.5
20190121092425 37 215 10.0 15.0 0.00 0.00 0.00 79 1017.7
20190121091429 37 229 10.0 19.0 0.00 0.00 0.00 78 1017.9
20190121090426 37 227 10.0 21.0 0.00 0.00 0.00 78 1018.1
20190121085438 37 224 10.0 19.0 0.00 0.00 0.00 78 1018.3
20190121084434 37 245 9.0 18.0 0.00 0.00 0.00 79 1018.5
20190121083438 37 221 9.0 16.0 0.00 0.00 0.00 79 1018.6
20190121082421 37 225 9.0 15.0 0.00 0.00 0.00 80 1018.7
20190121081423 37 241 9.0 16.0 0.00 0.00 0.00 80 1018.8
20190121080425 36 232 9.0 16.0 0.00 0.00 0.00 80 1018.8
20190121075421 36 240 9.0 13.0 0.00 0.00 0.00 81 1019.0
20190121074425 36 215 8.0 14.0 0.00 0.00 0.00 80 1019.0
20190121073424 36 230 8.0 11.0 0.00 0.00 0.00 80 1019.2
20190121072421 36 272 7.0 14.0 0.00 0.00 0.00 80 1019.4
20190121071425 36 231 8.0 14.0 0.00 0.00 0.00 80 1019.6
20190121070426 36 224 8.0 12.0 0.00 0.00 0.00 80 1019.6
20190121065419 36 229 7.0 15.0 0.00 0.00 0.00 80 1019.6
20190121064424 36 223 8.0 13.0 0.00 0.00 0.00 81 1019.7
20190121063425 36 246 7.0 10.0 0.00 0.00 0.00 82 1019.8
20190121062429 36 223 6.0 10.0 0.00 0.00 0.00 82 1019.8
20190121061433 36 232 8.0 14.0 0.00 0.00 0.00 82 1020.0
20190121060430 36 232 6.0 11.0 0.00 0.00 0.00 80 1020.1
20190121055426 37 213 6.0 8.0 0.00 0.00 0.00 78 1020.2
20190121054427 37 248 7.0 14.0 0.00 0.00 0.00 77 1020.4
20190121053428 37 254 7.0 15.0 0.00 0.00 0.00 78 1020.4
20190121052430 37 255 9.0 15.0 0.00 0.00 0.00 77 1020.6
20190121051430 36 265 8.0 11.0 0.00 0.00 0.00 79 1020.7
20190121050435 36 227 5.0 12.0 0.00 0.00 0.00 80 1020.9
20190121045433 36 244 6.0 10.0 0.00 0.00 0.00 80 1021.0
20190121044432 36 246 7.0 10.0 0.00 0.00 0.00 79 1021.1
20190121043436 36 273 8.0 14.0 0.00 0.00 0.00 80 1021.2
20190121042434 35 257 4.0 7.0 0.00 0.00 0.00 79 1021.2
20190121041434 35 248 2.0 8.0 0.00 0.00 0.00 79 1021.2
20190121040433 36 257 5.0 8.0 0.00 0.00 0.00 79 1021.4